createdAt,value
2019-01-30T00:00:34.380Z,997.7
2019-01-30T00:01:44.062Z,997.73
2019-01-30T00:02:54.001Z,997.72
2019-01-30T00:04:03.936Z,997.7
2019-01-30T00:05:13.878Z,997.69
2019-01-30T00:06:23.807Z,997.67
2019-01-30T00:07:33.478Z,997.7
2019-01-30T00:08:43.153Z,997.68
2019-01-30T00:09:53.083Z,997.7
2019-01-30T00:11:02.763Z,997.74
2019-01-30T00:12:12.750Z,997.72
2019-01-30T00:13:22.442Z,997.72
2019-01-30T00:14:31.878Z,997.72
2019-01-30T00:15:41.836Z,997.71
2019-01-30T00:17:01.330Z,997.66
2019-01-30T00:18:11.269Z,997.66
2019-01-30T00:19:21.225Z,997.64
2019-01-30T00:20:31.178Z,997.65
2019-01-30T00:21:40.870Z,997.66
2019-01-30T00:22:50.805Z,997.66
2019-01-30T00:24:00.489Z,997.63
2019-01-30T00:25:10.178Z,997.62
2019-01-30T00:26:20.112Z,997.6
2019-01-30T00:27:30.048Z,997.61
2019-01-30T00:28:40.006Z,997.65
2019-01-30T00:29:49.691Z,997.6
2019-01-30T00:31:08.963Z,997.61
2019-01-30T00:32:18.654Z,997.6
2019-01-30T00:33:28.591Z,997.58
2019-01-30T00:34:38.286Z,997.64
2019-01-30T00:35:48.244Z,997.63
2019-01-30T00:36:57.932Z,997.61
2019-01-30T00:38:07.874Z,997.58
2019-01-30T00:39:17.306Z,997.6
2019-01-30T00:40:26.764Z,997.57
2019-01-30T00:41:36.706Z,997.57
2019-01-30T00:42:46.134Z,997.53
2019-01-30T00:43:56.078Z,997.53
2019-01-30T00:45:06.008Z,997.53
2019-01-30T00:46:15.708Z,997.54
2019-01-30T00:47:25.399Z,997.53
2019-01-30T00:48:37.792Z,997.52
2019-01-30T00:49:47.508Z,997.56
2019-01-30T00:50:57.196Z,997.49
2019-01-30T00:52:07.132Z,997.51
2019-01-30T00:53:17.070Z,997.5
2019-01-30T00:54:32.082Z,997.47
2019-01-30T00:55:41.836Z,997.48
2019-01-30T00:56:51.524Z,997.46
2019-01-30T00:58:00.970Z,997.48
2019-01-30T00:59:10.412Z,997.47
2019-01-30T01:00:20.361Z,997.45
2019-01-30T01:01:30.292Z,997.42
2019-01-30T01:02:39.730Z,997.44
2019-01-30T01:03:49.486Z,997.49
2019-01-30T01:04:59.170Z,997.47
2019-01-30T01:06:09.100Z,997.44
2019-01-30T01:07:19.038Z,997.47
2019-01-30T01:08:28.986Z,997.48
2019-01-30T01:09:38.992Z,997.48
2019-01-30T01:10:48.692Z,997.48
2019-01-30T01:11:58.632Z,997.45
2019-01-30T01:13:08.050Z,997.47
2019-01-30T01:14:19.651Z,997.49
2019-01-30T01:15:28.584Z,997.48
2019-01-30T01:16:38.259Z,997.42
2019-01-30T01:17:48.283Z,997.42
2019-01-30T01:18:58.238Z,997.44
2019-01-30T01:20:08.168Z,997.4
2019-01-30T01:21:18.150Z,997.39
2019-01-30T01:22:27.832Z,997.34
2019-01-30T01:23:37.536Z,997.34
2019-01-30T01:24:47.478Z,997.41
2019-01-30T01:25:56.909Z,997.4
2019-01-30T01:27:06.844Z,997.37
2019-01-30T01:28:16.529Z,997.38
2019-01-30T01:29:26.466Z,997.33
2019-01-30T01:30:36.143Z,997.38
2019-01-30T01:31:46.076Z,997.35
2019-01-30T01:32:55.769Z,997.31
2019-01-30T01:34:05.721Z,997.31
2019-01-30T01:35:15.416Z,997.39
2019-01-30T01:36:25.094Z,997.35
2019-01-30T01:37:35.026Z,997.39
2019-01-30T01:38:44.957Z,997.36
2019-01-30T01:39:54.911Z,997.37
2019-01-30T01:41:04.582Z,997.32
2019-01-30T01:42:14.254Z,997.32
2019-01-30T01:43:24.484Z,997.31
2019-01-30T01:44:34.436Z,997.35
2019-01-30T01:45:44.414Z,997.28
2019-01-30T01:46:54.377Z,997.3
2019-01-30T01:48:04.068Z,997.28
2019-01-30T01:49:14.007Z,997.27
2019-01-30T01:50:23.952Z,997.27
2019-01-30T01:51:33.397Z,997.25
2019-01-30T01:52:43.077Z,997.24
2019-01-30T01:53:52.990Z,997.22
2019-01-30T01:55:02.435Z,997.21
2019-01-30T01:56:12.181Z,997.22
2019-01-30T01:57:21.860Z,997.18
2019-01-30T01:58:31.798Z,997.15
2019-01-30T01:59:41.738Z,997.14
2019-01-30T02:00:51.662Z,997.16
2019-01-30T02:02:01.349Z,997.14
2019-01-30T02:03:11.521Z,997.13
2019-01-30T02:04:21.200Z,997.15
2019-01-30T02:05:30.875Z,997.14
2019-01-30T02:06:40.810Z,997.1
2019-01-30T02:07:50.736Z,997.07
2019-01-30T02:09:00.424Z,997.04
2019-01-30T02:10:10.111Z,997
2019-01-30T02:11:20.039Z,996.99
2019-01-30T02:12:29.982Z,997
2019-01-30T02:13:39.924Z,997.01
2019-01-30T02:14:50.309Z,997
2019-01-30T02:15:59.992Z,997
2019-01-30T02:17:09.930Z,996.99
2019-01-30T02:18:19.611Z,997
2019-01-30T02:19:29.626Z,996.99
2019-01-30T02:20:39.564Z,996.99
2019-01-30T02:21:49.502Z,996.95
2019-01-30T02:22:59.485Z,996.99
2019-01-30T02:24:09.192Z,996.93
2019-01-30T02:25:19.137Z,996.92
2019-01-30T02:26:29.080Z,996.88
2019-01-30T02:27:38.773Z,996.86
2019-01-30T02:28:48.703Z,996.84
2019-01-30T02:29:58.626Z,996.82
2019-01-30T02:31:08.328Z,996.8
2019-01-30T02:32:18.059Z,996.81
2019-01-30T02:33:27.498Z,996.8
2019-01-30T02:34:36.948Z,996.8
2019-01-30T02:35:46.878Z,996.82
2019-01-30T02:36:56.813Z,996.74
2019-01-30T02:38:06.804Z,996.79
2019-01-30T02:39:16.486Z,996.74
2019-01-30T02:40:25.688Z,996.71
2019-01-30T02:41:35.641Z,996.7
2019-01-30T02:42:45.565Z,996.76
2019-01-30T02:43:55.277Z,996.74
2019-01-30T02:45:05.227Z,996.76
2019-01-30T02:46:14.689Z,996.74
2019-01-30T02:47:24.619Z,996.71
2019-01-30T02:48:34.076Z,996.67
2019-01-30T02:49:43.757Z,996.7
2019-01-30T02:50:53.690Z,996.7
2019-01-30T02:52:03.629Z,996.74
2019-01-30T02:53:13.569Z,996.76
2019-01-30T02:54:23.303Z,996.77
2019-01-30T02:55:32.999Z,996.76
2019-01-30T02:56:42.953Z,996.75
2019-01-30T02:57:52.879Z,996.76
2019-01-30T02:59:02.595Z,996.76
2019-01-30T03:00:12.274Z,996.78
2019-01-30T03:01:22.207Z,996.74
2019-01-30T03:02:32.147Z,996.74
2019-01-30T03:03:42.093Z,996.72
2019-01-30T03:04:52.137Z,996.74
2019-01-30T03:06:02.127Z,996.72
2019-01-30T03:07:12.161Z,996.7
2019-01-30T03:08:21.588Z,996.75
2019-01-30T03:09:31.285Z,996.72
2019-01-30T03:10:41.208Z,996.73
2019-01-30T03:11:51.135Z,996.77
2019-01-30T03:13:01.073Z,996.73
2019-01-30T03:14:10.507Z,996.71
2019-01-30T03:15:19.951Z,996.72
2019-01-30T03:16:29.915Z,996.78
2019-01-30T03:17:39.851Z,996.76
2019-01-30T03:18:49.777Z,996.74
2019-01-30T03:19:59.830Z,996.77
2019-01-30T03:21:09.284Z,996.71
2019-01-30T03:22:18.984Z,996.73
2019-01-30T03:23:28.921Z,996.79
2019-01-30T03:24:38.857Z,996.75
2019-01-30T03:25:48.291Z,996.76
2019-01-30T03:26:57.725Z,996.75
2019-01-30T03:28:07.664Z,996.74
2019-01-30T03:29:17.621Z,996.72
2019-01-30T03:30:27.555Z,996.71
2019-01-30T03:31:37.298Z,996.69
2019-01-30T03:32:47.089Z,996.69
2019-01-30T03:33:57.050Z,996.72
2019-01-30T03:35:07.013Z,996.71
2019-01-30T03:36:16.739Z,996.67
2019-01-30T03:37:26.657Z,996.7
2019-01-30T03:38:36.607Z,996.68
2019-01-30T03:39:46.542Z,996.65
2019-01-30T03:40:56.229Z,996.66
2019-01-30T03:42:05.922Z,996.66
2019-01-30T03:43:15.873Z,996.68
2019-01-30T03:44:25.803Z,996.62
2019-01-30T03:45:35.739Z,996.61
2019-01-30T03:46:45.667Z,996.62
2019-01-30T03:47:55.583Z,996.64
2019-01-30T03:49:05.029Z,996.66
2019-01-30T03:50:14.973Z,996.6
2019-01-30T03:51:24.919Z,996.64
2019-01-30T03:52:34.356Z,996.62
2019-01-30T03:53:44.313Z,996.59
2019-01-30T03:54:53.991Z,996.59
2019-01-30T03:56:04.012Z,996.58
2019-01-30T03:57:13.988Z,996.57
2019-01-30T03:58:23.953Z,996.58
2019-01-30T03:59:33.398Z,996.57
2019-01-30T04:00:43.089Z,996.58
2019-01-30T04:01:52.540Z,996.6
2019-01-30T04:03:02.227Z,996.57
2019-01-30T04:04:12.176Z,996.54
2019-01-30T04:05:21.867Z,996.59
2019-01-30T04:06:31.814Z,996.57
2019-01-30T04:07:41.252Z,996.61
2019-01-30T04:08:50.693Z,996.65
2019-01-30T04:09:59.889Z,996.59
2019-01-30T04:11:09.819Z,996.6
2019-01-30T04:12:19.258Z,996.58
2019-01-30T04:13:29.210Z,996.58
2019-01-30T04:14:39.154Z,996.49
2019-01-30T04:15:48.852Z,996.54
2019-01-30T04:16:58.777Z,996.54
2019-01-30T04:18:08.459Z,996.53
2019-01-30T04:19:18.237Z,996.51
2019-01-30T04:20:27.932Z,996.52
2019-01-30T04:21:37.615Z,996.49
2019-01-30T04:22:47.542Z,996.51
2019-01-30T04:23:57.247Z,996.47
2019-01-30T04:25:06.664Z,996.43
2019-01-30T04:26:16.351Z,996.45
2019-01-30T04:27:26.282Z,996.4
2019-01-30T04:28:35.965Z,996.4
2019-01-30T04:29:45.395Z,996.38
2019-01-30T04:30:55.364Z,996.35
2019-01-30T04:32:05.350Z,996.37
2019-01-30T04:33:15.032Z,996.33
2019-01-30T04:34:24.998Z,996.33
2019-01-30T04:35:34.712Z,996.28
2019-01-30T04:36:44.403Z,996.28
2019-01-30T04:37:54.111Z,996.26
2019-01-30T04:39:04.057Z,996.27
2019-01-30T04:40:13.997Z,996.3
2019-01-30T04:41:23.684Z,996.27
2019-01-30T04:42:33.881Z,996.27
2019-01-30T04:43:43.608Z,996.25
2019-01-30T04:44:53.661Z,996.27
2019-01-30T04:46:03.616Z,996.28
2019-01-30T04:47:13.562Z,996.24
2019-01-30T04:48:23.249Z,996.24
2019-01-30T04:49:33.181Z,996.23
2019-01-30T04:50:43.113Z,996.21
2019-01-30T04:51:53.043Z,996.24
2019-01-30T04:53:02.796Z,996.27
2019-01-30T04:54:12.730Z,996.17
2019-01-30T04:55:22.430Z,996.24
2019-01-30T04:56:31.874Z,996.22
2019-01-30T04:57:41.587Z,996.21
2019-01-30T04:58:51.540Z,996.18
2019-01-30T05:00:01.237Z,996.25
2019-01-30T05:01:11.157Z,996.21
2019-01-30T05:02:20.575Z,996.21
2019-01-30T05:03:30.014Z,996.15
2019-01-30T05:04:39.966Z,996.19
2019-01-30T05:05:49.649Z,996.16
2019-01-30T05:06:59.577Z,996.15
2019-01-30T05:08:09.027Z,996.16
2019-01-30T05:09:18.990Z,996.07
2019-01-30T05:10:28.932Z,996.06
2019-01-30T05:11:38.892Z,996.08
2019-01-30T05:12:48.591Z,996.09
2019-01-30T05:13:58.278Z,996.08
2019-01-30T05:15:08.885Z,996.11
2019-01-30T05:16:19.169Z,996.05
2019-01-30T05:17:29.103Z,996.08
2019-01-30T05:18:39.044Z,996.09
2019-01-30T05:19:48.966Z,996.07
2019-01-30T05:20:58.915Z,996.04
2019-01-30T05:22:08.870Z,996.03
2019-01-30T05:23:18.553Z,996.04
2019-01-30T05:24:28.498Z,996.06
2019-01-30T05:25:38.190Z,996.08
2019-01-30T05:26:48.152Z,996.06
2019-01-30T05:27:58.303Z,996.02
2019-01-30T05:29:08.234Z,996.02
2019-01-30T05:30:17.690Z,996.04
2019-01-30T05:31:27.646Z,996
2019-01-30T05:32:37.594Z,995.99
2019-01-30T05:33:47.030Z,996.03
2019-01-30T05:34:56.485Z,996.05
2019-01-30T05:36:06.200Z,996.06
2019-01-30T05:37:16.123Z,996.04
2019-01-30T05:38:26.070Z,996.05
2019-01-30T05:39:36.018Z,996.04
2019-01-30T05:40:45.710Z,996.05
2019-01-30T05:41:55.399Z,996.04
2019-01-30T05:43:05.088Z,996.06
2019-01-30T05:44:15.020Z,996.08
2019-01-30T05:45:24.714Z,996.09
2019-01-30T05:46:34.674Z,996.12
2019-01-30T05:47:44.113Z,996.13
2019-01-30T05:48:54.089Z,996.12
2019-01-30T05:50:04.034Z,996.12
2019-01-30T05:51:13.976Z,996.06
2019-01-30T05:52:23.905Z,996.1
2019-01-30T05:53:33.598Z,996.09
2019-01-30T05:54:43.262Z,996.07
2019-01-30T05:55:52.962Z,996.07
2019-01-30T05:57:02.651Z,996.06
2019-01-30T05:58:12.579Z,996.09
2019-01-30T05:59:22.023Z,996.09
2019-01-30T06:00:31.709Z,996.11
2019-01-30T06:01:41.638Z,996.12
2019-01-30T06:02:51.318Z,996.12
2019-01-30T06:04:01.274Z,996.13
2019-01-30T06:05:11.038Z,996.13
2019-01-30T06:06:20.502Z,996.11
2019-01-30T06:07:30.431Z,996.14
2019-01-30T06:08:40.371Z,996.13
2019-01-30T06:09:50.154Z,996.2
2019-01-30T06:11:00.131Z,996.24
2019-01-30T06:12:12.852Z,996.2
2019-01-30T06:13:22.795Z,996.2
2019-01-30T06:14:32.731Z,996.2
2019-01-30T06:15:42.679Z,996.23
2019-01-30T06:16:52.628Z,996.25
2019-01-30T06:18:02.362Z,996.23
2019-01-30T06:19:12.339Z,996.26
2019-01-30T06:20:22.273Z,996.21
2019-01-30T06:21:31.961Z,996.23
2019-01-30T06:22:41.897Z,996.26
2019-01-30T06:23:51.335Z,996.26
2019-01-30T06:25:01.050Z,996.24
2019-01-30T06:26:10.800Z,996.27
2019-01-30T06:27:20.759Z,996.25
2019-01-30T06:28:30.704Z,996.27
2019-01-30T06:29:40.417Z,996.29
2019-01-30T06:30:50.169Z,996.3
2019-01-30T06:32:00.110Z,996.3
2019-01-30T06:33:09.547Z,996.28
2019-01-30T06:34:19.062Z,996.3
2019-01-30T06:35:28.530Z,996.31
2019-01-30T06:36:38.502Z,996.24
2019-01-30T06:37:48.209Z,996.21
2019-01-30T06:38:57.646Z,996.22
2019-01-30T06:40:07.627Z,996.23
2019-01-30T06:41:17.325Z,996.22
2019-01-30T06:42:27.269Z,996.16
2019-01-30T06:43:36.963Z,996.17
2019-01-30T06:44:46.933Z,996.21
2019-01-30T06:45:56.629Z,996.19
2019-01-30T06:47:06.305Z,996.16
2019-01-30T06:48:15.992Z,996.18
2019-01-30T06:49:25.923Z,996.18
2019-01-30T06:50:35.877Z,996.18
2019-01-30T06:51:45.826Z,996.17
2019-01-30T06:52:55.820Z,996.16
2019-01-30T06:54:05.754Z,996.17
2019-01-30T06:55:15.696Z,996.2
2019-01-30T06:56:25.636Z,996.14
2019-01-30T06:57:35.577Z,996.15
2019-01-30T06:58:45.518Z,996.09
2019-01-30T06:59:55.250Z,996.12
2019-01-30T07:01:05.197Z,996.16
2019-01-30T07:02:14.877Z,996.15
2019-01-30T07:03:34.913Z,996.14
2019-01-30T07:04:44.634Z,996.11
2019-01-30T07:05:54.094Z,996.1
2019-01-30T07:07:04.036Z,996.01
2019-01-30T07:08:13.994Z,996.04
2019-01-30T07:09:23.706Z,995.96
2019-01-30T07:10:32.912Z,996.03
2019-01-30T07:11:42.826Z,995.99
2019-01-30T07:12:52.526Z,996.02
2019-01-30T07:14:02.532Z,995.99
2019-01-30T07:15:12.497Z,996.06
2019-01-30T07:16:22.198Z,996.04
2019-01-30T07:17:31.885Z,996.02
2019-01-30T07:18:41.322Z,996.01
2019-01-30T07:19:51.263Z,996.06
2019-01-30T07:21:01.323Z,996.04
2019-01-30T07:22:11.293Z,996.09
2019-01-30T07:23:20.984Z,996.03
2019-01-30T07:24:30.726Z,996.08
2019-01-30T07:25:40.671Z,996.05
2019-01-30T07:26:50.642Z,996.04
2019-01-30T07:28:00.634Z,996.06
2019-01-30T07:29:10.096Z,996.05
2019-01-30T07:30:19.581Z,995.98
2019-01-30T07:31:29.537Z,996
2019-01-30T07:32:42.215Z,995.98
2019-01-30T07:33:52.342Z,996
2019-01-30T07:35:02.033Z,995.99
2019-01-30T07:36:12.014Z,995.99
2019-01-30T07:37:21.445Z,996
2019-01-30T07:38:31.381Z,996
2019-01-30T07:39:40.856Z,996.04
2019-01-30T07:40:50.813Z,996
2019-01-30T07:42:00.770Z,996
2019-01-30T07:43:10.458Z,996.05
2019-01-30T07:44:23.417Z,995.97
2019-01-30T07:45:33.423Z,995.97
2019-01-30T07:46:43.410Z,996.01
2019-01-30T07:47:53.114Z,995.98
2019-01-30T07:49:03.157Z,995.98
2019-01-30T07:50:13.105Z,996.02
2019-01-30T07:51:22.800Z,996.04
2019-01-30T07:52:32.773Z,996
2019-01-30T07:53:42.831Z,996.04
2019-01-30T07:54:55.372Z,996.03
2019-01-30T07:56:05.404Z,996.02
2019-01-30T07:57:15.364Z,996.03
2019-01-30T07:58:25.362Z,996.05
2019-01-30T07:59:35.335Z,996.04
2019-01-30T08:00:45.284Z,996.04
2019-01-30T08:01:55.248Z,996.06
2019-01-30T08:03:05.197Z,996.08
2019-01-30T08:04:15.146Z,996.03
2019-01-30T08:05:25.197Z,996.06
2019-01-30T08:06:35.172Z,996.08
2019-01-30T08:07:44.864Z,996.1
2019-01-30T08:08:54.832Z,996.05
2019-01-30T08:10:04.798Z,996.02
2019-01-30T08:11:14.775Z,996.01
2019-01-30T08:12:24.767Z,995.98
2019-01-30T08:13:34.490Z,996.07
2019-01-30T08:14:44.448Z,996.04
2019-01-30T08:15:54.390Z,996.08
2019-01-30T08:17:04.358Z,996.06
2019-01-30T08:18:14.313Z,996.06
2019-01-30T08:19:24.275Z,996.03
2019-01-30T08:20:34.213Z,996.02
2019-01-30T08:21:43.940Z,996.04
2019-01-30T08:22:54.053Z,996.05
2019-01-30T08:24:05.024Z,996.02
2019-01-30T08:25:15.679Z,996.03
2019-01-30T08:26:26.251Z,996.06
2019-01-30T08:27:36.983Z,996.08
2019-01-30T08:28:47.406Z,996.03
2019-01-30T08:29:57.987Z,996.07
2019-01-30T08:31:09.199Z,996.06
2019-01-30T08:32:22.267Z,996
2019-01-30T08:33:32.408Z,996.03
2019-01-30T08:34:42.148Z,996.01
2019-01-30T08:35:52.146Z,995.97
2019-01-30T08:37:01.846Z,995.98
2019-01-30T08:38:11.799Z,995.98
2019-01-30T08:39:21.749Z,995.96
2019-01-30T08:40:31.443Z,995.99
2019-01-30T08:41:41.377Z,996
2019-01-30T08:42:52.191Z,995.99
2019-01-30T08:44:02.331Z,996
2019-01-30T08:45:12.049Z,996.01
2019-01-30T08:46:21.987Z,995.98
2019-01-30T08:47:31.942Z,995.97
2019-01-30T08:48:41.656Z,995.95
2019-01-30T08:49:51.426Z,995.94
2019-01-30T08:51:01.481Z,995.94
2019-01-30T08:52:11.431Z,995.92
2019-01-30T08:53:21.394Z,995.92
2019-01-30T08:54:31.099Z,995.89
2019-01-30T08:55:40.808Z,995.85
2019-01-30T08:56:52.780Z,995.89
2019-01-30T08:58:03.209Z,995.92
2019-01-30T08:59:13.233Z,995.91
2019-01-30T09:00:23.234Z,995.97
2019-01-30T09:01:33.290Z,996
2019-01-30T09:02:43.096Z,995.99
2019-01-30T09:03:52.797Z,996.05
2019-01-30T09:05:02.819Z,996.03
2019-01-30T09:06:12.287Z,996.02
2019-01-30T09:07:22.032Z,996.05
2019-01-30T09:08:32.059Z,996.04
2019-01-30T09:09:42.143Z,996.05
2019-01-30T09:10:51.685Z,996.09
2019-01-30T09:12:01.646Z,996.07
2019-01-30T09:13:11.372Z,996.12
2019-01-30T09:14:21.067Z,996.14
2019-01-30T09:15:31.016Z,996.08
2019-01-30T09:16:40.747Z,996.13
2019-01-30T09:17:50.697Z,996.14
2019-01-30T09:19:00.513Z,996.18
2019-01-30T09:20:10.227Z,996.06
2019-01-30T09:21:19.937Z,996.13
2019-01-30T09:22:30.127Z,996.09
2019-01-30T09:23:40.098Z,996.09
2019-01-30T09:24:50.062Z,996.09
2019-01-30T09:25:59.587Z,996.13
2019-01-30T09:27:09.579Z,996.15
2019-01-30T09:28:19.571Z,996.12
2019-01-30T09:29:29.564Z,996.13
2019-01-30T09:30:39.505Z,996.16
2019-01-30T09:31:49.527Z,996.11
2019-01-30T09:32:59.581Z,996.17
2019-01-30T09:34:09.658Z,996.17
2019-01-30T09:35:19.690Z,996.14
2019-01-30T09:36:29.692Z,996.16
2019-01-30T09:37:39.718Z,996.13
2019-01-30T09:38:49.545Z,996.16
2019-01-30T09:39:59.596Z,996.13
2019-01-30T09:41:09.386Z,996.1
2019-01-30T09:42:19.162Z,996.14
2019-01-30T09:43:28.933Z,996.15
2019-01-30T09:44:38.987Z,996.08
2019-01-30T09:45:48.703Z,996.13
2019-01-30T09:46:58.479Z,996.12
2019-01-30T09:48:08.623Z,996.08
2019-01-30T09:49:18.628Z,996.05
2019-01-30T09:50:28.655Z,996.04
2019-01-30T09:51:39.824Z,996.09
2019-01-30T09:52:49.389Z,996.09
2019-01-30T09:53:59.059Z,996.04
2019-01-30T09:55:09.113Z,996.07
2019-01-30T09:56:18.825Z,996.04
2019-01-30T09:57:28.777Z,996.02
2019-01-30T09:58:38.506Z,996.02
2019-01-30T09:59:48.264Z,996.02
2019-01-30T10:00:57.977Z,995.99
2019-01-30T10:02:07.947Z,995.97
2019-01-30T10:03:17.418Z,995.98
2019-01-30T10:04:36.921Z,995.96
2019-01-30T10:05:46.922Z,995.95
2019-01-30T10:06:56.620Z,995.97
2019-01-30T10:08:06.662Z,995.97
2019-01-30T10:09:16.437Z,995.98
2019-01-30T10:10:26.393Z,995.96
2019-01-30T10:11:36.596Z,995.96
2019-01-30T10:12:46.355Z,995.96
2019-01-30T10:13:56.322Z,995.91
2019-01-30T10:15:06.292Z,995.96
2019-01-30T10:16:16.343Z,995.92
2019-01-30T10:17:26.306Z,995.88
2019-01-30T10:18:38.749Z,995.93
2019-01-30T10:19:48.443Z,995.85
2019-01-30T10:20:58.719Z,995.88
2019-01-30T10:22:08.428Z,995.86
2019-01-30T10:23:18.410Z,995.8
2019-01-30T10:24:29.058Z,995.83
2019-01-30T10:25:39.137Z,995.77
2019-01-30T10:26:48.913Z,995.77
2019-01-30T10:27:59.040Z,995.75
2019-01-30T10:29:19.087Z,995.79
2019-01-30T10:30:29.040Z,995.76
2019-01-30T10:31:38.739Z,995.72
2019-01-30T10:32:48.432Z,995.75
2019-01-30T10:33:58.389Z,995.66
2019-01-30T10:35:08.361Z,995.68
2019-01-30T10:36:18.111Z,995.61
2019-01-30T10:37:28.069Z,995.68
2019-01-30T10:38:38.050Z,995.67
2019-01-30T10:39:48.159Z,995.69
2019-01-30T10:40:58.205Z,995.64
2019-01-30T10:42:08.194Z,995.68
2019-01-30T10:43:17.682Z,995.67
2019-01-30T10:44:27.630Z,995.6
2019-01-30T10:45:38.201Z,995.58
2019-01-30T10:46:48.193Z,995.57
2019-01-30T10:47:57.897Z,995.53
2019-01-30T10:49:07.856Z,995.53
2019-01-30T10:50:17.824Z,995.46
2019-01-30T10:51:27.544Z,995.5
2019-01-30T10:52:37.507Z,995.49
2019-01-30T10:53:48.171Z,995.44
2019-01-30T10:54:58.234Z,995.45
2019-01-30T10:56:08.211Z,995.46
2019-01-30T10:57:19.496Z,995.45
2019-01-30T10:58:29.462Z,995.48
2019-01-30T10:59:39.420Z,995.38
2019-01-30T11:00:49.222Z,995.42
2019-01-30T11:01:58.936Z,995.41
2019-01-30T11:03:08.869Z,995.39
2019-01-30T11:04:18.879Z,995.43
2019-01-30T11:05:28.809Z,995.38
2019-01-30T11:06:38.766Z,995.37
2019-01-30T11:07:48.740Z,995.36
2019-01-30T11:08:58.701Z,995.37
2019-01-30T11:10:08.421Z,995.41
2019-01-30T11:11:18.129Z,995.33
2019-01-30T11:12:27.849Z,995.35
2019-01-30T11:13:37.814Z,995.33
2019-01-30T11:14:47.761Z,995.34
2019-01-30T11:15:57.473Z,995.41
2019-01-30T11:17:08.996Z,995.43
2019-01-30T11:18:18.965Z,995.4
2019-01-30T11:19:28.930Z,995.36
2019-01-30T11:20:38.882Z,995.37
2019-01-30T11:21:48.844Z,995.36
2019-01-30T11:22:58.808Z,995.3
2019-01-30T11:24:08.772Z,995.31
2019-01-30T11:25:18.718Z,995.27
2019-01-30T11:26:28.684Z,995.27
2019-01-30T11:27:39.451Z,995.23
2019-01-30T11:28:49.396Z,995.26
2019-01-30T11:29:59.104Z,995.25
2019-01-30T11:31:08.814Z,995.21
2019-01-30T11:32:18.769Z,995.2
2019-01-30T11:33:28.482Z,995.15
2019-01-30T11:34:38.442Z,995.19
2019-01-30T11:35:48.394Z,995.17
2019-01-30T11:37:00.068Z,995.2
2019-01-30T11:38:10.285Z,995.14
2019-01-30T11:39:20.262Z,995.13
2019-01-30T11:40:29.966Z,995.11
2019-01-30T11:41:39.931Z,995.05
2019-01-30T11:42:49.376Z,995.05
2019-01-30T11:43:58.835Z,995.02
2019-01-30T11:45:08.799Z,995.14
2019-01-30T11:46:18.762Z,995.13
2019-01-30T11:47:28.466Z,995.11
2019-01-30T11:48:38.169Z,995.13
2019-01-30T11:49:56.936Z,995.02
2019-01-30T11:51:06.897Z,995.07
2019-01-30T11:52:16.827Z,995.01
2019-01-30T11:53:26.519Z,994.97
2019-01-30T11:54:38.766Z,995.01
2019-01-30T11:55:49.075Z,994.92
2019-01-30T11:56:58.771Z,994.95
2019-01-30T11:58:08.727Z,994.87
2019-01-30T11:59:18.692Z,994.88
2019-01-30T12:00:28.638Z,994.91
2019-01-30T12:01:38.844Z,994.88
2019-01-30T12:02:48.862Z,994.8
2019-01-30T12:03:58.596Z,994.81
2019-01-30T12:05:18.099Z,994.81
2019-01-30T12:06:27.856Z,994.82
2019-01-30T12:07:37.820Z,994.78
2019-01-30T12:08:47.770Z,994.79
2019-01-30T12:09:57.721Z,994.76
2019-01-30T12:11:07.446Z,994.76
2019-01-30T12:12:17.156Z,994.76
2019-01-30T12:13:26.844Z,994.66
2019-01-30T12:14:36.789Z,994.72
2019-01-30T12:15:46.741Z,994.68
2019-01-30T12:16:56.937Z,994.65
2019-01-30T12:18:06.893Z,994.65
2019-01-30T12:19:16.633Z,994.62
2019-01-30T12:20:26.597Z,994.62
2019-01-30T12:21:36.791Z,994.57
2019-01-30T12:22:46.491Z,994.58
2019-01-30T12:23:56.454Z,994.62
2019-01-30T12:25:06.424Z,994.6
2019-01-30T12:26:16.428Z,994.57
2019-01-30T12:27:26.448Z,994.54
2019-01-30T12:28:35.878Z,994.57
2019-01-30T12:29:45.567Z,994.64
2019-01-30T12:30:55.554Z,994.62
2019-01-30T12:32:05.234Z,994.62
2019-01-30T12:33:14.929Z,994.52
2019-01-30T12:34:28.208Z,994.58
2019-01-30T12:35:38.264Z,994.5
2019-01-30T12:36:47.471Z,994.53
2019-01-30T12:37:57.443Z,994.52
2019-01-30T12:39:07.381Z,994.54
2019-01-30T12:40:17.083Z,994.53
2019-01-30T12:41:27.049Z,994.53
2019-01-30T12:42:38.667Z,994.44
2019-01-30T12:43:48.639Z,994.52
2019-01-30T12:44:58.341Z,994.44
2019-01-30T12:46:08.301Z,994.45
2019-01-30T12:47:19.872Z,994.44
2019-01-30T12:48:30.214Z,994.41
2019-01-30T12:49:39.920Z,994.42
2019-01-30T12:50:49.628Z,994.36
2019-01-30T12:51:59.328Z,994.33
2019-01-30T12:53:09.279Z,994.35
2019-01-30T12:54:18.973Z,994.37
2019-01-30T12:55:29.409Z,994.33
2019-01-30T12:56:39.633Z,994.39
2019-01-30T12:57:49.324Z,994.38
2019-01-30T12:58:59.026Z,994.37
2019-01-30T13:00:08.986Z,994.32
2019-01-30T13:01:18.193Z,994.27
2019-01-30T13:02:28.148Z,994.34
2019-01-30T13:03:38.104Z,994.34
2019-01-30T13:04:48.057Z,994.3
2019-01-30T13:05:57.773Z,994.36
2019-01-30T13:07:07.742Z,994.34
2019-01-30T13:08:17.435Z,994.32
2019-01-30T13:09:28.546Z,994.33
2019-01-30T13:10:38.567Z,994.25
2019-01-30T13:11:48.273Z,994.31
2019-01-30T13:12:57.968Z,994.24
2019-01-30T13:14:07.946Z,994.26
2019-01-30T13:15:17.672Z,994.23
2019-01-30T13:16:27.631Z,994.2
2019-01-30T13:17:37.326Z,994.22
2019-01-30T13:18:49.557Z,994.22
2019-01-30T13:19:59.268Z,994.15
2019-01-30T13:21:09.219Z,994.22
2019-01-30T13:22:19.169Z,994.23
2019-01-30T13:23:29.106Z,994.15
2019-01-30T13:24:39.078Z,994.19
2019-01-30T13:25:48.790Z,994.14
2019-01-30T13:26:58.741Z,994.2
2019-01-30T13:28:08.729Z,994.18
2019-01-30T13:29:18.444Z,994.15
2019-01-30T13:30:28.430Z,994.15
2019-01-30T13:31:38.379Z,994.16
2019-01-30T13:32:48.393Z,994.14
2019-01-30T13:33:57.834Z,994.06
2019-01-30T13:35:07.543Z,994.14
2019-01-30T13:36:17.497Z,994.12
2019-01-30T13:37:27.457Z,994.08
2019-01-30T13:38:37.653Z,994.08
2019-01-30T13:39:47.699Z,994.03
2019-01-30T13:40:57.794Z,994.01
2019-01-30T13:42:07.795Z,993.96
2019-01-30T13:43:17.297Z,993.98
2019-01-30T13:44:27.113Z,993.99
2019-01-30T13:45:37.063Z,993.97
2019-01-30T13:46:47.034Z,993.95
2019-01-30T13:47:56.991Z,993.95
2019-01-30T13:49:06.751Z,993.97
2019-01-30T13:50:16.530Z,993.92
2019-01-30T13:51:25.764Z,993.91
2019-01-30T13:52:35.740Z,993.92
2019-01-30T13:53:45.754Z,993.87
2019-01-30T13:54:55.817Z,993.89
2019-01-30T13:56:05.801Z,993.98
2019-01-30T13:57:15.554Z,993.9
2019-01-30T13:58:25.602Z,993.91
2019-01-30T13:59:34.906Z,993.94
2019-01-30T14:00:44.454Z,993.92
2019-01-30T14:01:54.487Z,993.89
2019-01-30T14:03:04.518Z,993.91
2019-01-30T14:04:14.351Z,993.89
2019-01-30T14:05:24.097Z,993.88
2019-01-30T14:06:33.887Z,993.89
2019-01-30T14:07:43.377Z,993.87
2019-01-30T14:08:53.401Z,993.84
2019-01-30T14:10:03.495Z,993.84
2019-01-30T14:11:13.212Z,993.82
2019-01-30T14:12:23.222Z,993.79
2019-01-30T14:13:33.173Z,993.82
2019-01-30T14:14:42.995Z,993.78
2019-01-30T14:15:52.898Z,993.72
2019-01-30T14:17:02.993Z,993.69
2019-01-30T14:18:12.503Z,993.66
2019-01-30T14:19:22.279Z,993.65
2019-01-30T14:20:31.972Z,993.71
2019-01-30T14:21:41.949Z,993.69
2019-01-30T14:22:51.974Z,993.72
2019-01-30T14:24:02.076Z,993.7
2019-01-30T14:25:11.615Z,993.71
2019-01-30T14:26:21.676Z,993.76
2019-01-30T14:27:31.171Z,993.74
2019-01-30T14:28:41.128Z,993.66
2019-01-30T14:29:58.051Z,993.7
2019-01-30T14:31:08.217Z,993.69
2019-01-30T14:32:18.265Z,993.68
2019-01-30T14:33:27.992Z,993.65
2019-01-30T14:34:38.063Z,993.68
2019-01-30T14:35:48.092Z,993.65
2019-01-30T14:36:57.938Z,993.62